Time;durP1;ratioP1;P1;durP2;ratioP2;P2;SDS_P1;SDS_P2;PMS_P1;PMS_P2;Temp;Humidity;BMP_temperature;BMP_pressure;BME280_temperature;BME280_humidity;BME280_pressure;Samples;Min_cycle;Max_cycle;Signal;HPM_P1;HPM_P2
2023/08/10 00:02:17;;;;;;;7.05;2.40;;;15.50;99.90;;;;;;4990296;28;20125;-65
2023/08/10 00:04:44;;;;;;;6.32;2.78;;;15.50;99.90;;;;;;4973982;28;20051;-66
2023/08/10 00:07:12;;;;;;;6.55;2.55;;;15.50;99.90;;;;;;4973593;28;20471;-66
2023/08/10 00:09:39;;;;;;;6.70;2.50;;;15.50;99.90;;;;;;4973999;28;20251;-65
2023/08/10 00:12:05;;;;;;;6.47;2.40;;;15.50;99.90;;;;;;4991081;28;20050;-65
2023/08/10 00:14:32;;;;;;;4.47;2.40;;;15.50;99.90;;;;;;4990905;28;20046;-66
2023/08/10 00:16:59;;;;;;;5.30;2.47;;;15.50;99.90;;;;;;4990804;28;20065;-66
2023/08/10 00:19:34;;;;;;;7.47;2.38;;;15.50;99.90;;;;;;4973771;28;20054;-66
2023/08/10 00:22:01;;;;;;;6.60;2.70;;;15.50;99.90;;;;;;4974341;28;20117;-65
2023/08/10 00:24:29;;;;;;;5.03;2.40;;;15.50;99.90;;;;;;4973961;28;20058;-66
2023/08/10 00:26:56;;;;;;;7.32;2.30;;;15.50;99.90;;;;;;4989452;28;20050;-65
2023/08/10 00:29:23;;;;;;;4.97;2.45;;;15.50;99.90;;;;;;4973865;28;20505;-66
2023/08/10 00:31:50;;;;;;;5.05;2.40;;;15.40;99.90;;;;;;4990247;28;20121;-66
2023/08/10 00:34:17;;;;;;;6.30;2.30;;;15.50;99.90;;;;;;4973652;28;20082;-64
2023/08/10 00:36:44;;;;;;;5.72;2.13;;;15.50;99.90;;;;;;4989762;28;20058;-65
2023/08/10 00:39:11;;;;;;;4.25;2.38;;;15.50;99.90;;;;;;4991256;28;20065;-65
2023/08/10 00:41:41;;;;;;;4.63;2.13;;;15.40;99.90;;;;;;4990041;28;20089;-66
2023/08/10 00:44:08;;;;;;;5.68;2.20;;;15.50;99.90;;;;;;4985350;28;20435;-65
2023/08/10 00:46:37;;;;;;;6.63;2.25;;;15.40;99.90;;;;;;5009221;28;20046;-65
2023/08/10 00:49:05;;;;;;;7.10;2.70;;;15.40;99.90;;;;;;5010728;28;20050;-64
2023/08/10 00:51:33;;;;;;;7.70;2.60;;;15.40;99.90;;;;;;4993763;28;20088;-66
2023/08/10 00:54:00;;;;;;;4.63;2.35;;;15.30;99.90;;;;;;5009655;28;20477;-66
2023/08/10 00:56:28;;;;;;;5.60;2.03;;;15.30;99.90;;;;;;5010081;28;20054;-66
2023/08/10 00:58:56;;;;;;;7.80;2.30;;;15.20;99.90;;;;;;4977048;28;20144;-67
2023/08/10 01:01:24;;;;;;;4.85;2.20;;;15.30;99.90;;;;;;5009354;28;20498;-67
2023/08/10 01:03:51;;;;;;;5.10;2.30;;;15.20;99.90;;;;;;5009186;28;20065;-66
2023/08/10 01:06:23;;;;;;;7.63;2.45;;;15.20;99.90;;;;;;4992044;28;20473;-66
2023/08/10 01:09:14;;;;;;;6.30;2.20;;;15.20;99.90;;;;;;4992633;28;20054;-67
2023/08/10 01:12:19;;;;;;;5.10;2.10;;;15.20;99.90;;;;;;5010347;28;20050;-66
2023/08/10 01:14:57;;;;;;;5.25;2.10;;;15.20;99.90;;;;;;5009562;28;20076;-66
2023/08/10 01:17:32;;;;;;;4.53;2.30;;;15.30;99.90;;;;;;5009670;28;20132;-67
2023/08/10 01:20:04;;;;;;;7.05;2.08;;;15.30;99.90;;;;;;5010045;28;20046;-65
2023/08/10 01:22:47;;;;;;;4.78;1.98;;;15.30;99.90;;;;;;4993787;28;20132;-66
2023/08/10 01:25:16;;;;;;;4.38;2.00;;;15.30;99.90;;;;;;5009977;28;20065;-66
2023/08/10 01:27:44;;;;;;;3.55;2.03;;;15.30;99.90;;;;;;4992036;28;20538;-66
2023/08/10 01:30:12;;;;;;;4.70;2.25;;;15.40;99.90;;;;;;5010045;28;20077;-66
2023/08/10 01:32:39;;;;;;;3.78;2.15;;;15.40;99.90;;;;;;5011502;28;20054;-66
2023/08/10 01:35:06;;;;;;;6.32;2.40;;;15.40;99.90;;;;;;5012876;28;20567;-64
2023/08/10 01:37:33;;;;;;;6.00;2.30;;;15.40;99.90;;;;;;4995863;28;20053;-65
2023/08/10 01:40:00;;;;;;;6.35;2.70;;;15.30;99.90;;;;;;4996173;28;20060;-66
2023/08/10 01:42:27;;;;;;;5.72;2.25;;;15.30;99.90;;;;;;4995490;28;20054;-65
2023/08/10 01:44:55;;;;;;;6.60;2.70;;;15.30;99.90;;;;;;4995262;28;20100;-65
2023/08/10 01:47:44;;;;;;;4.38;2.50;;;15.30;99.90;;;;;;5012197;28;20049;-65
2023/08/10 01:50:11;;;;;;;;;;;15.20;99.90;;;;;;5013649;28;20244;-65
2023/08/10 01:53:02;;;;;;;4.97;2.10;;;15.20;99.90;;;;;;4995374;28;20020;-65
2023/08/10 01:55:29;;;;;;;6.72;2.60;;;15.10;99.90;;;;;;4962461;28;20054;-64
2023/08/10 01:57:57;;;;;;;3.88;2.13;;;15.10;99.90;;;;;;4975938;28;20058;-64
2023/08/10 02:00:23;;;;;;;4.15;2.15;;;15.10;99.90;;;;;;5008391;28;20057;-66
2023/08/10 02:02:51;;;;;;;5.07;2.55;;;15.00;99.90;;;;;;4993155;28;20050;-66
2023/08/10 02:05:19;;;;;;;6.57;2.85;;;15.00;99.90;;;;;;5011229;28;20042;-67
2023/08/10 02:07:49;;;;;;;5.38;2.60;;;14.90;99.90;;;;;;4995396;28;20049;-65
2023/08/10 02:10:16;;;;;;;6.82;2.35;;;14.90;99.90;;;;;;4995792;28;20064;-66
2023/08/10 02:12:44;;;;;;;5.93;2.45;;;14.90;99.90;;;;;;5011971;28;20119;-66
2023/08/10 02:15:12;;;;;;;4.72;2.42;;;14.90;99.90;;;;;;5012262;28;20056;-66
2023/08/10 02:17:46;;;;;;;6.15;2.28;;;14.80;99.90;;;;;;4995280;28;20061;-66
2023/08/10 02:20:13;;;;;;;7.57;2.30;;;14.80;99.90;;;;;;4995232;28;20050;-65
2023/08/10 02:22:47;;;;;;;6.40;2.47;;;14.80;99.90;;;;;;5012267;28;20057;-66
2023/08/10 02:25:13;;;;;;;4.75;2.22;;;14.70;99.90;;;;;;5012609;28;20054;-65
2023/08/10 02:27:41;;;;;;;7.60;2.60;;;14.70;99.90;;;;;;4994569;28;20065;-67
2023/08/10 02:30:09;;;;;;;5.65;2.22;;;14.60;99.90;;;;;;5012713;28;20056;-65
2023/08/10 02:32:36;;;;;;;4.50;2.10;;;14.60;99.90;;;;;;4995579;28;20120;-67
2023/08/10 02:35:04;;;;;;;6.40;2.08;;;14.70;99.90;;;;;;5012445;28;20068;-66
2023/08/10 02:37:31;;;;;;;3.28;2.05;;;14.60;99.90;;;;;;5012003;28;20363;-67
2023/08/10 02:39:58;;;;;;;6.43;2.83;;;14.60;99.90;;;;;;5012601;28;20053;-65
2023/08/10 02:42:25;;;;;;;3.42;2.10;;;14.70;99.90;;;;;;5011559;28;20076;-65
2023/08/10 02:44:52;;;;;;;7.88;2.55;;;14.60;99.90;;;;;;4992333;28;20073;-66
2023/08/10 02:47:19;;;;;;;5.00;2.17;;;14.60;99.90;;;;;;4975109;28;20068;-67
2023/08/10 02:49:45;;;;;;;4.78;2.20;;;14.60;99.90;;;;;;4992475;28;20046;-63
2023/08/10 02:52:12;;;;;;;5.72;2.47;;;14.60;99.90;;;;;;4992523;28;20047;-65
2023/08/10 02:54:38;;;;;;;4.57;2.20;;;14.60;99.90;;;;;;4991415;28;20469;-66
2023/08/10 02:57:05;;;;;;;8.38;2.05;;;14.40;99.90;;;;;;4974663;28;20464;-64
2023/08/10 02:59:33;;;;;;;6.25;2.42;;;14.50;99.90;;;;;;4991640;28;20042;-65
2023/08/10 03:01:59;;;;;;;5.47;2.80;;;14.60;99.90;;;;;;4975328;28;20046;-66
2023/08/10 03:04:26;;;;;;;6.55;2.50;;;14.50;99.90;;;;;;4992023;28;20047;-67
2023/08/10 03:06:53;;;;;;;4.57;2.13;;;14.50;99.90;;;;;;4974963;28;20450;-67
2023/08/10 03:09:20;;;;;;;5.72;2.40;;;14.60;99.90;;;;;;4992326;28;20051;-67
2023/08/10 03:11:46;;;;;;;3.08;2.45;;;14.50;99.90;;;;;;4974930;28;20379;-65
2023/08/10 03:14:12;;;;;;;6.15;2.70;;;14.60;99.90;;;;;;4991879;28;20053;-66
2023/08/10 03:16:39;;;;;;;6.53;3.13;;;14.60;99.90;;;;;;4991605;28;20067;-66
2023/08/10 03:19:05;;;;;;;6.43;2.30;;;14.60;99.90;;;;;;4992144;28;20054;-65
2023/08/10 03:21:31;;;;;;;3.80;2.13;;;14.60;99.90;;;;;;4991992;28;20120;-65
2023/08/10 03:23:57;;;;;;;5.78;2.28;;;14.60;99.90;;;;;;4991607;28;20054;-66
2023/08/10 03:26:24;;;;;;;7.30;2.28;;;14.70;99.90;;;;;;4991198;28;20075;-65
2023/08/10 03:28:51;;;;;;;5.90;2.42;;;14.70;99.90;;;;;;4992129;28;20184;-66
2023/08/10 03:31:23;;;;;;;4.05;2.28;;;14.70;99.90;;;;;;4974657;28;20039;-66
2023/08/10 03:33:50;;;;;;;4.22;2.45;;;14.80;99.90;;;;;;4958391;28;20157;-67
2023/08/10 03:36:19;;;;;;;5.50;2.80;;;14.80;99.90;;;;;;4990267;28;20061;-65
2023/08/10 03:38:46;;;;;;;5.95;2.88;;;14.70;99.90;;;;;;4991673;28;20465;-67
2023/08/10 03:41:13;;;;;;;6.93;2.50;;;14.70;99.90;;;;;;4974852;28;20188;-66
2023/08/10 03:43:40;;;;;;;3.50;2.60;;;14.80;99.90;;;;;;4957588;28;20046;-65
2023/08/10 03:46:07;;;;;;;8.02;2.63;;;14.80;99.90;;;;;;4973971;28;20053;-65
2023/08/10 03:48:33;;;;;;;5.80;2.90;;;14.80;99.90;;;;;;4974717;28;20061;-67
2023/08/10 03:51:01;;;;;;;6.05;2.80;;;14.70;99.90;;;;;;4974355;28;20116;-67
2023/08/10 03:53:28;;;;;;;7.72;3.28;;;14.70;99.90;;;;;;4973741;28;20150;-65
2023/08/10 03:55:54;;;;;;;5.85;3.17;;;14.60;99.90;;;;;;4990192;28;20363;-67
2023/08/10 03:58:20;;;;;;;6.90;3.13;;;14.70;99.90;;;;;;4991183;28;20054;-66
2023/08/10 04:00:47;;;;;;;4.32;3.00;;;14.60;99.90;;;;;;4990970;28;20061;-64
2023/08/10 04:03:14;;;;;;;7.03;3.35;;;14.60;99.90;;;;;;4990423;28;20137;-65
2023/08/10 04:05:40;;;;;;;11.13;4.22;;;14.60;99.90;;;;;;4990379;28;20057;-65
2023/08/10 04:08:08;;;;;;;8.68;3.60;;;14.60;99.90;;;;;;4990952;28;20113;-65
2023/08/10 04:10:35;;;;;;;7.25;4.05;;;14.60;99.90;;;;;;4990973;28;20050;-65
2023/08/10 04:13:02;;;;;;;6.20;3.67;;;14.60;99.90;;;;;;4990747;28;20051;-67
2023/08/10 04:15:32;;;;;;;9.70;4.20;;;14.60;99.90;;;;;;4990249;28;20058;-65
2023/08/10 04:17:58;;;;;;;6.40;4.03;;;14.60;99.90;;;;;;4991653;28;20050;-65
2023/08/10 04:20:25;;;;;;;6.97;3.80;;;14.60;99.90;;;;;;4991401;28;20259;-66
2023/08/10 04:22:52;;;;;;;8.60;4.00;;;14.60;99.90;;;;;;4990532;28;20264;-66
2023/08/10 04:25:20;;;;;;;6.45;4.32;;;14.60;99.90;;;;;;4989015;28;20330;-67
2023/08/10 04:27:48;;;;;;;7.20;4.18;;;14.60;99.90;;;;;;4990027;28;20062;-65
2023/08/10 04:30:14;;;;;;;7.40;4.45;;;14.60;99.90;;;;;;4990955;28;20051;-65
2023/08/10 04:32:41;;;;;;;6.90;4.15;;;14.60;99.90;;;;;;4973457;28;20051;-66
2023/08/10 04:35:09;;;;;;;5.72;3.70;;;14.70;99.90;;;;;;4989272;28;20077;-66
2023/08/10 04:37:35;;;;;;;7.03;4.30;;;14.70;99.90;;;;;;4990235;28;20120;-66
2023/08/10 04:40:09;;;;;;;8.25;4.70;;;14.70;99.90;;;;;;4990724;28;20340;-65
2023/08/10 04:42:38;;;;;;;7.90;4.45;;;14.70;99.90;;;;;;4990913;28;20112;-67
2023/08/10 04:45:05;;;;;;;7.45;4.38;;;14.70;99.90;;;;;;5010088;28;20057;-64
2023/08/10 04:47:36;;;;;;;7.72;5.00;;;14.70;99.90;;;;;;5010442;28;20120;-67
2023/08/10 04:50:07;;;;;;;9.38;5.10;;;14.80;99.90;;;;;;4977713;28;20411;-65
2023/08/10 04:52:49;;;;;;;6.07;3.95;;;14.80;99.90;;;;;;4992394;28;20046;-65
2023/08/10 04:55:16;;;;;;;6.35;4.03;;;14.80;99.90;;;;;;4976357;28;20193;-66
2023/08/10 04:57:44;;;;;;;8.20;4.70;;;14.90;99.90;;;;;;4992974;28;20458;-67
2023/08/10 05:00:15;;;;;;;9.63;4.78;;;14.90;99.90;;;;;;4992308;28;20050;-67
2023/08/10 05:02:41;;;;;;;7.30;4.35;;;15.00;99.90;;;;;;5009622;28;20343;-66
2023/08/10 05:05:10;;;;;;;8.48;4.90;;;14.90;99.90;;;;;;5009407;28;20054;-66
2023/08/10 05:07:37;;;;;;;8.82;4.60;;;14.90;99.90;;;;;;5027296;28;20107;-66
2023/08/10 05:10:08;;;;;;;8.18;4.40;;;15.00;99.90;;;;;;5014578;28;20156;-66
2023/08/10 05:12:37;;;;;;;6.88;4.00;;;15.10;99.90;;;;;;5012566;28;20045;-65
2023/08/10 05:15:06;;;;;;;7.85;4.38;;;15.10;99.90;;;;;;5007927;28;20120;-63
2023/08/10 05:17:33;;;;;;;6.10;4.10;;;15.10;99.90;;;;;;4997366;28;20067;-67
2023/08/10 05:19:59;;;;;;;5.95;3.58;;;15.10;99.90;;;;;;5031281;28;20107;-67
2023/08/10 05:22:26;;;;;;;6.78;3.92;;;15.20;99.90;;;;;;5013396;28;20085;-65
2023/08/10 05:24:53;;;;;;;8.68;4.57;;;15.30;99.90;;;;;;4996471;28;20100;-65
2023/08/10 05:27:20;;;;;;;8.85;4.32;;;15.30;99.90;;;;;;4995479;28;20080;-67
2023/08/10 05:29:48;;;;;;;7.47;4.18;;;15.40;99.90;;;;;;4982240;28;20042;-65
2023/08/10 05:32:16;;;;;;;9.88;4.43;;;15.50;99.90;;;;;;4994731;28;20045;-66
2023/08/10 05:34:43;;;;;;;9.07;4.15;;;15.70;99.90;;;;;;5013259;28;20045;-67
2023/08/10 05:37:23;;;;;;;9.05;4.03;;;15.80;99.90;;;;;;4995413;28;20046;-67
2023/08/10 05:40:09;;;;;;;6.35;3.63;;;15.90;99.90;;;;;;4997574;28;20050;-66
2023/08/10 05:42:37;;;;;;;8.70;3.53;;;16.00;99.90;;;;;;4996805;28;20065;-65
2023/08/10 05:45:06;;;;;;;6.60;3.78;;;16.20;99.90;;;;;;4979312;28;20046;-63
2023/08/10 05:47:53;;;;;;;6.68;3.50;;;16.30;99.90;;;;;;4995599;28;20034;-67
2023/08/10 05:50:21;;;;;;;6.07;3.45;;;16.40;99.90;;;;;;4978435;28;20057;-65
2023/08/10 05:52:48;;;;;;;7.78;4.00;;;16.40;99.90;;;;;;4979637;28;20363;-66
2023/08/10 05:55:15;;;;;;;5.35;3.03;;;16.40;99.90;;;;;;4994594;28;20049;-66
2023/08/10 05:57:42;;;;;;;5.40;3.58;;;16.50;99.90;;;;;;5012776;28;20450;-64
2023/08/10 06:00:12;;;;;;;5.95;3.30;;;16.60;99.90;;;;;;4995480;28;20111;-65
2023/08/10 06:02:38;;;;;;;7.25;3.55;;;16.70;99.90;;;;;;5012878;28;20568;-66
2023/08/10 06:05:06;;;;;;;5.53;3.13;;;16.80;99.90;;;;;;5011496;28;20422;-66
2023/08/10 06:07:36;;;;;;;6.85;3.33;;;16.70;99.90;;;;;;5012971;28;20046;-66
2023/08/10 06:10:04;;;;;;;6.60;3.40;;;16.70;99.90;;;;;;5012931;28;20045;-65
2023/08/10 06:12:31;;;;;;;5.70;3.17;;;16.70;99.90;;;;;;5012358;28;20355;-65
2023/08/10 06:14:59;;;;;;;5.03;3.22;;;16.80;99.90;;;;;;4994668;28;20485;-65
2023/08/10 06:17:26;;;;;;;5.95;3.22;;;16.80;99.90;;;;;;5012152;28;20151;-66
2023/08/10 06:19:53;;;;;;;6.05;3.15;;;16.80;99.90;;;;;;5011024;28;20410;-65
2023/08/10 06:22:20;;;;;;;4.75;3.00;;;16.80;99.90;;;;;;5012635;28;20455;-67
2023/08/10 06:24:47;;;;;;;6.03;3.03;;;16.80;99.90;;;;;;5012646;28;20076;-65
2023/08/10 06:27:13;;;;;;;5.47;2.72;;;16.80;99.90;;;;;;5012196;28;20378;-67
2023/08/10 06:29:40;;;;;;;6.20;3.15;;;16.70;99.90;;;;;;4995427;28;20442;-66
2023/08/10 06:32:08;;;;;;;4.25;3.30;;;16.70;99.90;;;;;;5011575;28;20050;-65
2023/08/10 06:34:35;;;;;;;7.68;3.38;;;16.70;99.90;;;;;;4977502;28;20050;-64
2023/08/10 06:37:01;;;;;;;6.50;3.53;;;16.60;99.90;;;;;;5011126;28;20069;-66
2023/08/10 06:39:27;;;;;;;8.82;3.63;;;16.70;99.90;;;;;;5012455;28;20068;-66
2023/08/10 06:41:54;;;;;;;5.03;2.92;;;16.70;99.90;;;;;;4995340;28;20599;-67
2023/08/10 06:44:20;;;;;;;5.38;3.58;;;16.70;99.90;;;;;;4994288;28;20065;-64
2023/08/10 06:46:46;;;;;;;6.47;3.45;;;16.70;99.90;;;;;;5011924;28;20054;-64
2023/08/10 06:49:16;;;;;;;8.07;3.67;;;16.90;99.90;;;;;;4995052;28;20057;-63
2023/08/10 06:51:43;;;;;;;6.85;3.15;;;16.90;99.90;;;;;;5012105;28;20346;-63
2023/08/10 06:54:09;;;;;;;5.13;3.30;;;17.10;99.90;;;;;;4994592;28;20334;-63
2023/08/10 06:56:36;;;;;;;6.68;3.42;;;17.10;99.90;;;;;;5008644;28;20119;-64
2023/08/10 06:59:03;;;;;;;4.68;3.42;;;17.20;99.90;;;;;;5012696;28;20046;-64
2023/08/10 07:01:29;;;;;;;6.80;2.75;;;17.30;99.90;;;;;;5012529;28;20053;-64
2023/08/10 07:03:56;;;;;;;6.30;3.28;;;17.40;99.90;;;;;;5012215;28;20104;-64
2023/08/10 07:06:23;;;;;;;5.93;2.90;;;17.50;99.90;;;;;;5011778;28;20112;-64
2023/08/10 07:08:52;;;;;;;3.92;3.17;;;17.60;99.90;;;;;;5012627;28;20042;-63
2023/08/10 07:11:20;;;;;;;4.88;3.20;;;17.70;99.90;;;;;;4994984;28;20052;-64
2023/08/10 07:13:46;;;;;;;6.68;2.83;;;17.70;99.90;;;;;;5011670;28;20117;-63
2023/08/10 07:16:13;;;;;;;8.55;3.03;;;17.80;99.90;;;;;;4994117;28;20410;-64
2023/08/10 07:18:41;;;;;;;6.18;2.85;;;17.90;99.90;;;;;;4978478;28;20116;-63
2023/08/10 07:21:07;;;;;;;7.05;2.63;;;18.00;99.90;;;;;;5011381;28;20553;-63
2023/08/10 07:23:33;;;;;;;6.15;2.70;;;17.90;99.90;;;;;;5009279;28;20050;-63
2023/08/10 07:26:00;;;;;;;4.97;2.63;;;18.00;99.90;;;;;;5011810;28;20061;-63
2023/08/10 07:28:26;;;;;;;6.78;2.80;;;18.00;99.90;;;;;;5012324;28;20062;-63
2023/08/10 07:30:53;;;;;;;8.13;2.85;;;18.10;99.90;;;;;;5011224;28;20411;-63
2023/08/10 07:33:20;;;;;;;6.95;2.83;;;18.50;99.90;;;;;;5012119;28;20104;-63
2023/08/10 07:35:47;;;;;;;5.28;2.72;;;18.80;99.90;;;;;;5011229;28;20056;-63
2023/08/10 07:38:16;;;;;;;6.82;2.25;;;19.00;99.90;;;;;;4994661;28;20049;-63
2023/08/10 07:40:43;;;;;;;4.38;2.15;;;19.10;99.90;;;;;;5012062;28;20049;-63
2023/08/10 07:43:12;;;;;;;4.72;2.33;;;19.20;99.90;;;;;;5010796;28;20140;-63
2023/08/10 07:45:38;;;;;;;6.13;2.30;;;19.20;99.90;;;;;;5010851;28;20093;-64
2023/08/10 07:48:04;;;;;;;7.05;2.30;;;19.20;99.90;;;;;;5011600;28;20376;-63
2023/08/10 07:50:31;;;;;;;4.30;2.28;;;19.30;99.90;;;;;;5011199;28;20046;-63
2023/08/10 07:52:58;;;;;;;4.78;2.28;;;19.20;99.90;;;;;;5026292;28;20076;-63
2023/08/10 07:55:24;;;;;;;5.30;2.17;;;19.20;99.90;;;;;;4993276;28;20049;-63
2023/08/10 07:57:50;;;;;;;6.15;1.75;;;19.10;99.90;;;;;;5011323;28;20129;-64
2023/08/10 08:00:17;;;;;;;5.13;1.85;;;19.00;99.90;;;;;;5011039;28;20041;-63
2023/08/10 08:02:43;;;;;;;3.90;1.95;;;19.00;99.90;;;;;;5011257;28;20057;-63
2023/08/10 08:05:10;;;;;;;3.70;2.10;;;19.10;99.90;;;;;;5009350;28;20049;-64
2023/08/10 08:07:36;;;;;;;3.42;2.28;;;19.20;99.90;;;;;;4994052;28;20112;-64
2023/08/10 08:10:03;;;;;;;6.78;1.75;;;19.30;99.90;;;;;;5010912;28;20494;-64
2023/08/10 08:12:29;;;;;;;5.40;2.00;;;19.40;99.90;;;;;;4993793;28;20054;-63
2023/08/10 08:14:56;;;;;;;4.53;1.95;;;19.50;99.90;;;;;;4993134;28;20049;-63
2023/08/10 08:17:22;;;;;;;3.65;1.90;;;19.60;99.90;;;;;;5011013;28;20118;-63
2023/08/10 08:19:55;;;;;;;5.70;2.25;;;19.80;99.90;;;;;;4993185;28;20050;-64
2023/08/10 08:22:22;;;;;;;4.88;1.92;;;19.80;99.90;;;;;;4994168;28;20104;-63
2023/08/10 08:24:51;;;;;;;3.58;1.55;;;19.80;99.90;;;;;;4976815;28;20125;-63
2023/08/10 08:27:18;;;;;;;4.20;1.88;;;20.20;99.90;;;;;;4994335;28;20050;-63
2023/08/10 08:29:44;;;;;;;5.95;1.73;;;20.20;99.90;;;;;;4993543;28;20045;-63
2023/08/10 08:32:11;;;;;;;5.35;1.83;;;20.40;99.90;;;;;;5011285;28;20057;-63
2023/08/10 08:34:38;;;;;;;3.80;1.50;;;20.60;99.90;;;;;;5010974;28;20054;-63
2023/08/10 08:37:05;;;;;;;4.85;1.88;;;20.70;99.90;;;;;;5010622;28;20054;-64
2023/08/10 08:39:31;;;;;;;4.25;2.03;;;20.80;99.90;;;;;;5011234;28;20061;-64
2023/08/10 08:41:58;;;;;;;3.92;1.70;;;20.90;99.90;;;;;;4996011;28;20065;-63
2023/08/10 08:44:25;;;;;;;5.45;1.88;;;21.10;99.90;;;;;;4988906;28;20061;-64
2023/08/10 08:46:51;;;;;;;3.05;1.70;;;20.80;99.90;;;;;;4977649;28;20057;-64
2023/08/10 08:49:18;;;;;;;5.05;1.88;;;20.90;99.90;;;;;;4995191;28;20055;-64
2023/08/10 08:51:45;;;;;;;3.78;2.20;;;20.80;99.90;;;;;;4994875;28;20057;-63
2023/08/10 08:54:12;;;;;;;4.38;1.95;;;20.80;99.90;;;;;;4967821;28;20418;-65
2023/08/10 08:56:38;;;;;;;3.63;2.25;;;20.80;99.90;;;;;;4996937;28;20057;-63
2023/08/10 08:59:05;;;;;;;5.07;2.08;;;20.80;99.90;;;;;;5014389;28;20064;-63
2023/08/10 09:01:32;;;;;;;5.72;2.22;;;20.90;99.90;;;;;;5014956;28;20116;-64
2023/08/10 09:03:59;;;;;;;7.40;1.90;;;20.70;99.90;;;;;;5013151;28;20058;-63
2023/08/10 09:06:25;;;;;;;4.57;2.10;;;20.70;99.90;;;;;;5014434;28;20049;-64
2023/08/10 09:08:51;;;;;;;6.22;2.33;;;20.70;99.90;;;;;;5014493;28;20120;-64
2023/08/10 09:11:19;;;;;;;3.92;1.90;;;20.70;99.90;;;;;;4997506;28;20097;-63
2023/08/10 09:14:05;;;;;;;6.10;2.45;;;20.70;99.90;;;;;;5011672;28;20045;-63
2023/08/10 09:16:32;;;;;;;4.90;1.98;;;20.60;99.90;;;;;;4994885;28;20046;-64
2023/08/10 09:19:01;;;;;;;4.40;2.22;;;20.80;99.90;;;;;;4977758;28;20057;-63
2023/08/10 09:21:31;;;;;;;4.50;2.30;;;20.80;99.90;;;;;;4994726;28;20128;-63
2023/08/10 09:23:57;;;;;;;4.70;2.20;;;21.00;99.90;;;;;;4998724;28;20058;-64
2023/08/10 09:26:25;;;;;;;5.53;1.90;;;21.10;99.90;;;;;;5013996;28;20125;-63
2023/08/10 09:28:52;;;;;;;3.00;1.88;;;21.30;99.90;;;;;;5014078;28;20049;-63
2023/08/10 09:31:27;;;;;;;3.60;2.03;;;21.50;99.90;;;;;;4996512;28;20061;-63
2023/08/10 09:33:59;;;;;;;4.80;1.90;;;21.50;99.90;;;;;;4996248;28;20049;-63
2023/08/10 09:36:28;;;;;;;4.43;1.90;;;21.70;99.90;;;;;;4976764;28;20053;-63
2023/08/10 09:38:55;;;;;;;4.10;1.75;;;21.70;99.90;;;;;;4993772;28;20407;-63
2023/08/10 09:41:23;;;;;;;3.08;1.52;;;21.60;99.90;;;;;;4993950;28;20375;-63
2023/08/10 09:43:51;;;;;;;3.53;1.35;;;21.50;99.90;;;;;;5000361;28;20148;-64
2023/08/10 09:46:17;;;;;;;4.97;1.75;;;21.70;99.90;;;;;;4995204;28;20474;-64
2023/08/10 09:48:48;;;;;;;5.63;2.15;;;21.70;99.90;;;;;;4995687;28;20122;-64
2023/08/10 09:51:15;;;;;;;4.75;1.80;;;21.70;99.90;;;;;;5013016;28;20042;-64
2023/08/10 09:53:41;;;;;;;3.47;1.60;;;21.70;99.90;;;;;;4995679;28;20057;-64
2023/08/10 09:56:08;;;;;;;7.50;1.90;;;21.50;99.90;;;;;;5013121;28;20057;-64
2023/08/10 09:58:41;;;;;;;4.28;1.90;;;21.50;99.90;;;;;;5013483;28;20088;-63
2023/08/10 10:01:08;;;;;;;4.38;1.85;;;21.60;99.90;;;;;;5013574;28;20378;-64
2023/08/10 10:03:34;;;;;;;4.13;1.80;;;21.60;99.90;;;;;;5013098;28;20490;-64
2023/08/10 10:06:01;;;;;;;4.32;1.90;;;21.60;99.90;;;;;;5013220;28;20054;-64
2023/08/10 10:08:29;;;;;;;5.35;1.92;;;21.60;99.90;;;;;;4979789;28;20061;-64
2023/08/10 10:11:00;;;;;;;5.65;2.42;;;21.60;99.90;;;;;;5013967;28;20052;-64
2023/08/10 10:13:27;;;;;;;;;;;21.70;99.90;;;;;;5014117;28;20049;-65
2023/08/10 10:15:55;;;;;;;3.65;2.40;;;21.80;99.90;;;;;;5012363;28;19936;-65
2023/08/10 10:18:22;;;;;;;3.17;1.88;;;21.70;99.90;;;;;;4997246;28;20120;-64
2023/08/10 10:20:50;;;;;;;4.30;2.13;;;21.70;99.90;;;;;;4995678;28;20045;-64
2023/08/10 10:23:21;;;;;;;3.22;2.10;;;21.60;99.90;;;;;;5013346;28;20053;-64
2023/08/10 10:26:01;;;;;;;4.70;2.70;;;21.50;99.90;;;;;;4994502;28;20359;-64
2023/08/10 10:28:30;;;;;;;6.90;2.33;;;21.60;99.90;;;;;;5010454;28;20050;-64
2023/08/10 10:31:07;;;;;;;3.10;2.05;;;21.80;99.90;;;;;;5013128;28;20120;-65
2023/08/10 10:33:34;;;;;;;3.75;2.22;;;21.80;99.90;;;;;;5013067;28;20108;-62
2023/08/10 10:36:14;;;;;;;4.18;2.40;;;21.90;99.90;;;;;;5012326;28;20050;-63
2023/08/10 10:38:47;;;;;;;4.75;2.40;;;22.00;99.90;;;;;;5013336;28;20053;-64
2023/08/10 10:41:15;;;;;;;7.38;2.63;;;21.80;99.90;;;;;;5013299;28;20042;-61
2023/08/10 10:43:44;;;;;;;3.70;2.78;;;21.70;99.90;;;;;;5010859;28;20054;-62
2023/08/10 10:46:37;;;;;;;4.32;2.85;;;21.80;99.90;;;;;;4992748;28;20435;-64
2023/08/10 10:49:11;;;;;;;3.45;2.50;;;21.90;99.90;;;;;;4993184;28;20054;-61
2023/08/10 10:51:54;;;;;;;5.15;2.55;;;21.90;99.90;;;;;;4993414;28;20121;-63
2023/08/10 10:54:21;;;;;;;4.07;2.00;;;21.80;99.90;;;;;;4982407;28;20488;-63
2023/08/10 10:56:48;;;;;;;4.82;2.53;;;21.90;99.90;;;;;;4992903;28;20496;-64
2023/08/10 10:59:15;;;;;;;4.57;2.70;;;22.10;99.90;;;;;;5010887;28;20461;-64
2023/08/10 11:01:47;;;;;;;4.28;2.35;;;22.20;99.90;;;;;;4993938;28;20046;-65
2023/08/10 11:04:13;;;;;;;6.25;3.00;;;22.30;99.90;;;;;;4993501;28;20047;-66
2023/08/10 11:06:41;;;;;;;4.88;2.63;;;22.40;99.90;;;;;;4988917;28;20042;-64
2023/08/10 11:09:13;;;;;;;4.03;2.88;;;22.40;99.90;;;;;;4975193;28;20109;-64
2023/08/10 11:11:39;;;;;;;;;;;22.40;99.90;;;;;;4992262;28;20042;-65
2023/08/10 11:14:05;;;;;;;5.30;2.97;;;22.50;99.90;;;;;;4996949;28;19931;-65
2023/08/10 11:16:39;;;;;;;5.50;2.72;;;22.60;99.90;;;;;;5011768;28;20056;-66
2023/08/10 11:19:09;;;;;;;4.50;3.25;;;22.70;99.90;;;;;;5012078;28;20053;-66
2023/08/10 11:21:38;;;;;;;6.20;3.40;;;22.70;99.90;;;;;;5012139;28;20053;-64
2023/08/10 11:24:06;;;;;;;4.38;2.80;;;22.80;99.90;;;;;;4990773;28;20072;-65
2023/08/10 11:26:34;;;;;;;5.38;2.85;;;22.90;99.90;;;;;;4989487;28;20459;-64
2023/08/10 11:29:01;;;;;;;5.22;2.88;;;22.80;99.90;;;;;;4975591;28;20057;-65
2023/08/10 11:31:37;;;;;;;4.28;3.00;;;23.00;99.90;;;;;;4975571;28;20046;-67
2023/08/10 11:34:20;;;;;;;7.38;3.90;;;22.70;99.90;;;;;;4994171;28;20056;-63
2023/08/10 11:36:47;;;;;;;;;;;23.10;99.90;;;;;;4991871;28;20035;-66
2023/08/10 11:39:13;;;;;;;5.75;3.20;;;22.80;99.90;;;;;;4975142;28;20033;-66
2023/08/10 11:41:45;;;;;;;6.22;3.20;;;23.10;99.90;;;;;;4992273;28;20141;-65
2023/08/10 11:44:28;;;;;;;5.55;3.00;;;23.20;99.90;;;;;;4985562;28;20061;-65
2023/08/10 11:46:57;;;;;;;6.35;3.75;;;23.50;99.90;;;;;;5011638;28;20085;-67
2023/08/10 11:49:28;;;;;;;4.65;3.95;;;23.60;99.90;;;;;;5011752;28;20045;-66
2023/08/10 11:51:59;;;;;;;4.13;3.33;;;23.80;99.90;;;;;;5011786;28;20058;-66
2023/08/10 11:54:30;;;;;;;5.68;3.97;;;23.70;99.90;;;;;;5011335;28;20442;-67
2023/08/10 11:56:56;;;;;;;5.63;3.58;;;23.70;99.90;;;;;;4994132;28;20053;-67
2023/08/10 11:59:23;;;;;;;7.07;4.32;;;23.60;99.90;;;;;;5011473;28;20054;-66
2023/08/10 12:01:54;;;;;;;6.70;4.05;;;23.40;99.90;;;;;;5010364;28;20421;-67
2023/08/10 12:04:20;;;;;;;;;;;23.40;99.90;;;;;;5011366;28;20050;-63
2023/08/10 12:06:47;;;;;;;7.30;4.03;;;23.30;99.90;;;;;;5011660;28;19921;-67
2023/08/10 12:09:13;;;;;;;7.60;4.30;;;23.50;99.90;;;;;;5011501;28;20046;-66
2023/08/10 12:11:40;;;;;;;5.47;4.13;;;23.60;99.90;;;;;;5011328;28;20053;-66
2023/08/10 12:14:08;;;;;;;7.05;4.53;;;23.90;99.90;;;;;;5010931;28;20058;-65
2023/08/10 12:16:34;;;;;;;7.28;4.70;;;23.60;99.90;;;;;;5010704;28;20058;-67
2023/08/10 12:19:01;;;;;;;7.00;4.07;;;23.50;99.90;;;;;;4994263;28;20057;-65
2023/08/10 12:21:27;;;;;;;7.50;4.13;;;23.60;99.90;;;;;;5011158;28;20050;-67
2023/08/10 12:23:55;;;;;;;6.68;4.47;;;23.60;99.90;;;;;;5011325;28;20124;-64
2023/08/10 12:26:22;;;;;;;6.40;4.65;;;23.60;99.90;;;;;;5011195;28;20049;-65
2023/08/10 12:28:48;;;;;;;5.72;3.95;;;23.60;99.90;;;;;;5011325;28;20386;-66
2023/08/10 12:31:15;;;;;;;8.20;4.15;;;23.70;99.90;;;;;;5011364;28;20079;-66
2023/08/10 12:33:41;;;;;;;5.55;4.75;;;23.80;99.90;;;;;;5010100;28;20453;-64
2023/08/10 12:36:07;;;;;;;7.53;4.25;;;23.80;99.90;;;;;;4990651;28;20047;-66
2023/08/10 12:38:34;;;;;;;6.43;4.20;;;23.80;99.90;;;;;;4990724;28;20046;-62
2023/08/10 12:41:00;;;;;;;5.20;3.92;;;23.90;99.90;;;;;;4992226;28;20054;-67
2023/08/10 12:43:27;;;;;;;6.95;4.22;;;24.00;99.90;;;;;;4990810;28;20082;-65
2023/08/10 12:45:53;;;;;;;6.25;4.38;;;23.90;99.90;;;;;;4992953;28;20092;-66
2023/08/10 12:48:20;;;;;;;7.45;4.13;;;23.80;99.90;;;;;;4993780;28;20046;-66
2023/08/10 12:50:47;;;;;;;7.07;4.88;;;23.70;99.90;;;;;;4993658;28;20494;-66
2023/08/10 12:53:13;;;;;;;6.60;4.32;;;23.70;99.90;;;;;;5011587;28;20046;-67
2023/08/10 12:55:40;;;;;;;8.02;4.50;;;23.70;99.90;;;;;;5010437;28;20312;-67